createdAt,value
2022-11-02T00:01:21.425Z,10.50
2022-11-02T00:03:50.647Z,10.47
2022-11-02T00:06:20.931Z,10.41
2022-11-02T00:08:49.862Z,10.18
2022-11-02T00:11:18.067Z,10.23
2022-11-02T00:13:47.604Z,10.22
2022-11-02T00:16:18.030Z,10.24
2022-11-02T00:18:47.799Z,10.27
2022-11-02T00:21:17.828Z,10.28
2022-11-02T00:23:46.993Z,10.28
2022-11-02T00:26:15.479Z,10.33
2022-11-02T00:28:44.095Z,10.37
2022-11-02T00:31:11.983Z,10.40
2022-11-02T00:33:40.629Z,10.45
2022-11-02T00:36:10.174Z,10.47
2022-11-02T00:38:38.388Z,10.52
2022-11-02T00:41:06.323Z,10.58
2022-11-02T00:43:34.485Z,10.62
2022-11-02T00:46:02.818Z,10.62
2022-11-02T00:48:31.713Z,10.63
2022-11-02T00:51:01.019Z,10.62
2022-11-02T00:53:32.618Z,10.57
2022-11-02T00:56:15.394Z,10.50
2022-11-02T00:58:44.621Z,10.47
2022-11-02T01:01:14.438Z,10.48
2022-11-02T01:03:42.886Z,10.48
2022-11-02T01:06:13.773Z,10.48
2022-11-02T01:08:42.432Z,10.47
2022-11-02T01:11:15.226Z,10.44
2022-11-02T01:13:47.301Z,10.43
2022-11-02T01:16:16.663Z,10.39
2022-11-02T01:18:44.402Z,10.31
2022-11-02T01:21:12.723Z,10.25
2022-11-02T01:23:40.576Z,10.21
2022-11-02T01:26:09.068Z,10.19
2022-11-02T01:28:38.900Z,10.14
2022-11-02T01:31:10.093Z,10.12
2022-11-02T01:33:44.590Z,10.13
2022-11-02T01:36:29.987Z,10.14
2022-11-02T01:39:04.794Z,10.11
2022-11-02T01:41:37.017Z,10.08
2022-11-02T01:44:06.003Z,10.06
2022-11-02T01:46:43.635Z,10.05
2022-11-02T01:49:15.051Z,10.05
2022-11-02T01:51:46.275Z,10.04
2022-11-02T01:54:25.196Z,10.03
2022-11-02T01:57:44.659Z,10.01
2022-11-02T02:00:51.801Z,9.94
2022-11-02T02:03:23.491Z,10.01
2022-11-02T02:05:56.591Z,10.00
2022-11-02T02:08:25.708Z,9.93
2022-11-02T02:10:57.450Z,9.85
2022-11-02T02:13:27.894Z,9.78
2022-11-02T02:16:14.729Z,9.74
2022-11-02T02:18:46.700Z,9.69
2022-11-02T02:21:38.748Z,9.55
2022-11-02T02:24:22.309Z,9.47
2022-11-02T02:27:15.346Z,9.43
2022-11-02T02:33:28.148Z,9.43
2022-11-02T02:36:16.293Z,9.44
2022-11-02T02:38:48.978Z,9.47
2022-11-02T02:41:26.678Z,9.48
2022-11-02T02:43:56.276Z,9.48
2022-11-02T02:46:24.032Z,9.47
2022-11-02T02:48:54.589Z,9.46
2022-11-02T02:51:28.705Z,9.44
2022-11-02T02:54:11.230Z,9.43
2022-11-02T02:56:41.199Z,9.40
2022-11-02T02:59:16.064Z,9.38
2022-11-02T03:01:45.905Z,9.34
2022-11-02T03:04:14.730Z,9.26
2022-11-02T03:06:57.967Z,9.24
2022-11-02T03:10:10.807Z,9.23
2022-11-02T03:13:02.651Z,9.18
2022-11-02T03:15:38.563Z,9.26
2022-11-02T03:18:31.418Z,9.18
2022-11-02T03:21:15.201Z,9.27
2022-11-02T03:23:59.207Z,9.29
2022-11-02T03:26:27.284Z,9.31
2022-11-02T03:29:03.398Z,9.32
2022-11-02T03:31:33.756Z,9.32
2022-11-02T03:34:10.265Z,9.32
2022-11-02T03:36:47.733Z,9.32
2022-11-02T03:39:19.118Z,9.33
2022-11-02T03:41:49.797Z,9.33
2022-11-02T03:44:23.234Z,9.33
2022-11-02T03:47:01.234Z,9.33
2022-11-02T03:49:35.463Z,9.34
2022-11-02T03:52:08.830Z,9.33
2022-11-02T03:54:42.417Z,9.32
2022-11-02T03:57:22.663Z,9.31
2022-11-02T03:59:51.527Z,9.30
2022-11-02T04:02:22.568Z,9.29
2022-11-02T04:04:51.852Z,9.28
2022-11-02T04:07:30.270Z,9.26
2022-11-02T04:09:59.397Z,9.21
2022-11-02T04:12:52.079Z,9.16
2022-11-02T04:15:21.263Z,9.02
2022-11-02T04:18:13.436Z,8.96
2022-11-02T04:20:42.422Z,8.96
2022-11-02T04:23:29.564Z,8.98
2022-11-02T04:25:58.649Z,8.97
2022-11-02T04:28:40.214Z,8.92
2022-11-02T04:31:08.889Z,8.88
2022-11-02T04:33:38.500Z,8.87
2022-11-02T04:36:17.025Z,8.87
2022-11-02T04:38:46.299Z,8.87
2022-11-02T04:41:42.186Z,8.88
2022-11-02T04:44:42.026Z,8.86
2022-11-02T04:47:17.252Z,8.87
2022-11-02T04:49:45.094Z,8.87
2022-11-02T04:52:15.597Z,8.86
2022-11-02T04:54:47.337Z,8.85
2022-11-02T04:57:15.194Z,8.84
2022-11-02T04:59:44.451Z,8.84
2022-11-02T05:02:12.334Z,8.82
2022-11-02T05:04:40.233Z,8.83
2022-11-02T05:07:10.186Z,8.82
2022-11-02T05:09:37.956Z,8.81
2022-11-02T05:12:06.861Z,8.82
2022-11-02T05:14:35.202Z,8.83
2022-11-02T05:17:03.513Z,8.79
2022-11-02T05:19:32.158Z,8.80
2022-11-02T05:22:02.658Z,8.84
2022-11-02T05:24:31.205Z,8.88
2022-11-02T05:27:00.520Z,8.93
2022-11-02T05:29:28.470Z,8.97
2022-11-02T05:31:56.966Z,9.01
2022-11-02T05:34:25.160Z,9.06
2022-11-02T05:36:54.390Z,9.12
2022-11-02T05:39:22.176Z,9.16
2022-11-02T05:41:49.858Z,9.21
2022-11-02T05:44:18.186Z,9.27
2022-11-02T05:46:46.256Z,9.34
2022-11-02T05:49:13.976Z,9.39
2022-11-02T05:51:43.250Z,9.47
2022-11-02T05:54:11.201Z,9.55
2022-11-02T05:56:38.865Z,9.65
2022-11-02T05:59:06.839Z,9.74
2022-11-02T06:01:34.530Z,9.83
2022-11-02T06:04:02.380Z,9.90
2022-11-02T06:06:30.128Z,9.95
2022-11-02T06:09:00.577Z,10.00
2022-11-02T06:11:30.735Z,10.07
2022-11-02T06:13:58.729Z,10.14
2022-11-02T06:16:26.469Z,10.21
2022-11-02T06:18:54.205Z,10.27
2022-11-02T06:21:21.911Z,10.28
2022-11-02T06:23:51.221Z,10.35
2022-11-02T06:26:18.947Z,10.47
2022-11-02T06:28:46.798Z,10.61
2022-11-02T06:31:17.317Z,10.77
2022-11-02T06:33:45.726Z,10.94
2022-11-02T06:36:13.637Z,11.17
2022-11-02T06:38:42.286Z,11.41
2022-11-02T06:41:10.421Z,11.62
2022-11-02T06:43:39.581Z,11.85
2022-11-02T06:46:07.220Z,12.08
2022-11-02T06:48:35.998Z,12.31
2022-11-02T06:51:04.689Z,12.59
2022-11-02T06:53:32.937Z,12.87
2022-11-02T06:56:00.937Z,13.25
2022-11-02T06:58:29.073Z,13.62
2022-11-02T07:00:58.444Z,14.00
2022-11-02T07:03:26.795Z,14.44
2022-11-02T07:05:54.552Z,15.54
2022-11-02T07:08:22.535Z,17.23
2022-11-02T07:10:50.668Z,19.24
2022-11-02T07:13:18.513Z,21.12
2022-11-02T07:15:46.494Z,23.01
2022-11-02T07:18:14.250Z,24.89
2022-11-02T07:20:44.269Z,26.63
2022-11-02T07:23:12.055Z,28.25
2022-11-02T07:25:39.778Z,29.73
2022-11-02T07:28:07.630Z,31.04
2022-11-02T07:30:36.068Z,32.28
2022-11-02T07:33:04.346Z,33.55
2022-11-02T07:35:34.248Z,34.72
2022-11-02T07:38:03.058Z,35.87
2022-11-02T07:40:32.228Z,36.84
2022-11-02T07:43:00.389Z,37.75
2022-11-02T07:45:49.188Z,38.64
2022-11-02T07:48:16.979Z,39.49
2022-11-02T07:50:44.765Z,40.21
2022-11-02T07:53:12.983Z,40.83
2022-11-02T07:55:41.141Z,41.44
2022-11-02T07:58:15.067Z,42.04
2022-11-02T08:00:43.152Z,42.57
2022-11-02T08:03:12.066Z,43.13
2022-11-02T08:05:41.321Z,43.74
2022-11-02T08:08:14.380Z,44.26
2022-11-02T08:10:42.564Z,44.41
2022-11-02T08:13:11.490Z,44.62
2022-11-02T08:15:39.498Z,45.11
2022-11-02T08:18:14.683Z,45.53
2022-11-02T08:20:43.036Z,45.94
2022-11-02T08:23:11.319Z,46.19
2022-11-02T08:25:39.640Z,46.16
2022-11-02T08:28:08.514Z,46.60
2022-11-02T08:30:37.525Z,47.23
2022-11-02T08:33:06.889Z,47.77
2022-11-02T08:35:36.474Z,48.10
2022-11-02T08:38:04.830Z,48.46
2022-11-02T08:40:33.339Z,48.69
2022-11-02T08:43:02.158Z,48.91
2022-11-02T08:45:53.955Z,48.85
2022-11-02T08:48:18.926Z,49.12
2022-11-02T08:50:48.246Z,49.26
2022-11-02T08:53:16.379Z,49.41
2022-11-02T08:55:44.545Z,49.41
2022-11-02T08:58:12.485Z,49.36
2022-11-02T09:00:40.231Z,49.46
2022-11-02T09:03:08.105Z,49.73
2022-11-02T09:05:37.092Z,49.94
2022-11-02T09:08:10.938Z,50.06
2022-11-02T09:10:38.825Z,50.22
2022-11-02T09:13:07.874Z,50.26
2022-11-02T09:15:36.791Z,50.16
2022-11-02T09:18:05.875Z,50.22
2022-11-02T09:20:34.620Z,50.27
2022-11-02T09:23:02.375Z,50.39
2022-11-02T09:25:30.243Z,50.54
2022-11-02T09:27:58.791Z,50.49
2022-11-02T09:30:28.839Z,50.15
2022-11-02T09:32:57.549Z,50.06
2022-11-02T09:35:26.167Z,50.03
2022-11-02T09:37:54.081Z,50.13
2022-11-02T09:40:23.339Z,49.99
2022-11-02T09:43:00.431Z,50.16
2022-11-02T09:45:30.063Z,50.20
2022-11-02T09:48:23.509Z,50.21
2022-11-02T09:50:54.290Z,50.27
2022-11-02T09:53:39.870Z,50.25
2022-11-02T09:56:08.619Z,50.21
2022-11-02T09:58:38.790Z,50.05
2022-11-02T10:01:14.043Z,49.95
2022-11-02T10:03:57.425Z,49.95
2022-11-02T10:06:25.616Z,49.81
2022-11-02T10:09:02.658Z,49.81
2022-11-02T10:11:32.412Z,49.79
2022-11-02T10:14:00.243Z,49.83
2022-11-02T10:16:36.226Z,49.79
2022-11-02T10:19:06.757Z,49.71
2022-11-02T10:21:37.845Z,49.48
2022-11-02T10:24:21.660Z,49.27
2022-11-02T10:26:49.659Z,49.09
2022-11-02T10:29:22.060Z,48.93
2022-11-02T10:31:50.021Z,48.82
2022-11-02T10:34:20.694Z,48.85
2022-11-02T10:36:57.280Z,48.86
2022-11-02T10:39:32.524Z,48.37
2022-11-02T10:42:20.694Z,47.45
2022-11-02T10:45:07.310Z,46.33
2022-11-02T10:47:42.667Z,45.35
2022-11-02T10:50:28.566Z,44.48
2022-11-02T10:53:20.415Z,43.76
2022-11-02T10:55:59.467Z,43.03
2022-11-02T10:58:28.580Z,42.29
2022-11-02T11:01:04.846Z,41.71
2022-11-02T11:03:32.919Z,41.15
2022-11-02T11:06:02.962Z,40.63
2022-11-02T11:08:34.833Z,39.91
2022-11-02T11:11:15.035Z,39.39
2022-11-02T11:16:33.496Z,38.51
2022-11-02T11:21:50.368Z,37.39
2022-11-02T11:24:26.564Z,36.75
2022-11-02T11:27:12.662Z,36.29
2022-11-02T11:29:51.853Z,35.57
2022-11-02T11:32:27.090Z,35.14
2022-11-02T11:35:05.271Z,34.65
2022-11-02T11:37:33.722Z,34.39
2022-11-02T11:40:03.701Z,34.18
2022-11-02T11:42:35.299Z,33.76
2022-11-02T11:45:06.240Z,33.30
2022-11-02T11:47:36.402Z,33.19
2022-11-02T11:50:16.104Z,33.00
2022-11-02T11:53:18.327Z,32.65
2022-11-02T11:56:04.174Z,32.34
2022-11-02T11:58:33.106Z,32.07
2022-11-02T12:01:10.612Z,31.76
2022-11-02T12:03:58.226Z,31.30
2022-11-02T12:06:46.109Z,30.96
2022-11-02T12:09:20.044Z,30.66
2022-11-02T12:11:47.780Z,30.43
2022-11-02T12:14:18.566Z,30.24
2022-11-02T12:16:49.964Z,30.07
2022-11-02T12:19:36.434Z,29.76
2022-11-02T12:22:22.334Z,29.69
2022-11-02T12:25:02.490Z,29.35
2022-11-02T12:27:52.059Z,29.28
2022-11-02T12:30:19.811Z,29.14
2022-11-02T12:32:47.653Z,29.02
2022-11-02T12:35:30.968Z,28.98
2022-11-02T12:37:58.871Z,28.78
2022-11-02T12:40:39.018Z,28.48
2022-11-02T12:43:25.622Z,28.34
2022-11-02T12:50:12.452Z,28.01
2022-11-02T12:52:55.567Z,27.91
2022-11-02T12:55:31.037Z,27.90
2022-11-02T12:58:12.829Z,27.78
2022-11-02T13:00:43.418Z,27.68
2022-11-02T13:03:20.352Z,27.45
2022-11-02T13:05:54.778Z,27.42
2022-11-02T13:08:28.401Z,27.29
2022-11-02T13:11:00.328Z,27.06
2022-11-02T13:13:33.872Z,26.91
2022-11-02T13:16:03.153Z,26.85
2022-11-02T13:18:38.045Z,26.78
2022-11-02T13:21:06.615Z,26.67
2022-11-02T13:23:34.664Z,26.41
2022-11-02T13:26:21.904Z,26.34
2022-11-02T13:29:10.014Z,26.32
2022-11-02T13:31:41.574Z,26.18
2022-11-02T13:34:15.295Z,26.12
2022-11-02T13:36:44.214Z,25.97
2022-11-02T13:39:31.090Z,25.79
2022-11-02T13:42:08.095Z,25.68
2022-11-02T13:44:45.151Z,25.56
2022-11-02T13:47:13.138Z,25.37
2022-11-02T13:49:43.382Z,25.34
2022-11-02T13:52:17.035Z,25.15
2022-11-02T13:57:33.500Z,24.94
2022-11-02T14:04:40.070Z,24.64
2022-11-02T14:16:05.762Z,24.24
2022-11-02T14:18:34.011Z,24.00
2022-11-02T14:21:23.562Z,23.90
2022-11-02T14:23:51.782Z,23.92
2022-11-02T14:26:30.361Z,23.83
2022-11-02T15:07:54.448Z,22.04
2022-11-02T15:15:26.114Z,21.61
2022-11-02T15:18:19.190Z,21.41
2022-11-02T15:21:11.879Z,21.35
2022-11-02T15:23:51.219Z,21.25
2022-11-02T15:30:28.814Z,21.03
2022-11-02T15:33:04.390Z,20.88
2022-11-02T15:43:24.489Z,20.58
2022-11-02T15:46:13.146Z,20.41
2022-11-02T15:48:59.499Z,20.38
2022-11-02T15:51:40.395Z,20.35
2022-11-02T15:54:15.493Z,20.33
2022-11-02T15:57:15.025Z,20.29
2022-11-02T16:00:02.246Z,20.22
2022-11-02T16:07:05.224Z,20.07
2022-11-02T16:09:35.317Z,20.01
2022-11-02T16:15:30.118Z,19.96
2022-11-02T16:21:24.603Z,19.90
2022-11-02T16:23:56.185Z,19.89
2022-11-02T16:26:27.408Z,19.87
2022-11-02T16:29:21.002Z,19.80
2022-11-02T16:35:19.479Z,19.81
2022-11-02T16:37:53.237Z,19.81
2022-11-02T16:40:23.483Z,19.79
2022-11-02T16:42:53.305Z,19.78
2022-11-02T16:45:37.126Z,19.76
2022-11-02T16:48:26.535Z,19.75
2022-11-02T16:51:10.498Z,19.71
2022-11-02T16:53:43.491Z,19.68
2022-11-02T16:56:14.646Z,19.67
2022-11-02T16:58:48.292Z,19.65
2022-11-02T17:01:24.217Z,19.64
2022-11-02T17:03:54.935Z,19.64
2022-11-02T17:06:28.688Z,19.58
2022-11-02T17:08:58.480Z,19.62
2022-11-02T17:11:28.914Z,19.61
2022-11-02T17:14:02.801Z,19.60
2022-11-02T17:16:40.010Z,19.60
2022-11-02T17:19:29.085Z,19.57
2022-11-02T17:27:02.623Z,19.51
2022-11-02T17:29:32.694Z,19.44
2022-11-02T17:32:05.470Z,19.43
2022-11-02T17:43:41.442Z,19.28
2022-11-02T18:09:39.993Z,18.90
2022-11-02T18:12:23.141Z,18.75
2022-11-02T18:14:52.005Z,18.73
2022-11-02T18:17:34.955Z,18.60
2022-11-02T18:20:18.275Z,18.54
2022-11-02T18:22:47.936Z,18.43
2022-11-02T18:29:57.114Z,18.17
2022-11-02T18:32:33.114Z,18.11
2022-11-02T18:38:12.037Z,17.95
2022-11-02T18:40:41.785Z,17.83
2022-11-02T18:43:15.158Z,17.77
2022-11-02T18:45:45.648Z,17.71
2022-11-02T18:48:16.718Z,17.69
2022-11-02T18:50:48.719Z,17.57
2022-11-02T18:53:20.236Z,17.57
2022-11-02T18:55:52.659Z,17.46
2022-11-02T18:58:28.314Z,17.43
2022-11-02T19:03:44.751Z,17.43
2022-11-02T19:09:37.337Z,17.39
2022-11-02T19:12:12.628Z,17.33
2022-11-02T19:14:43.100Z,17.27
2022-11-02T19:17:12.834Z,17.25
2022-11-02T19:19:43.370Z,17.22
2022-11-02T19:22:20.449Z,17.19
2022-11-02T19:24:51.332Z,17.16
2022-11-02T19:27:24.574Z,17.12
2022-11-02T19:33:26.048Z,16.98
2022-11-02T19:35:56.026Z,16.80
2022-11-02T19:38:26.260Z,16.76
2022-11-02T19:41:06.244Z,16.71
2022-11-02T19:43:38.559Z,16.69
2022-11-02T19:46:08.028Z,16.63
2022-11-02T19:48:39.081Z,16.55
2022-11-02T19:51:08.746Z,16.55
2022-11-02T19:53:37.258Z,16.54
2022-11-02T19:56:07.078Z,16.56
2022-11-02T19:58:35.228Z,16.55
2022-11-02T20:01:10.600Z,16.56
2022-11-02T20:03:39.370Z,16.57
2022-11-02T20:06:10.775Z,16.57
2022-11-02T20:08:39.731Z,16.53
2022-11-02T20:11:37.772Z,16.48
2022-11-02T20:14:05.866Z,16.46
2022-11-02T20:16:34.434Z,16.45
2022-11-02T20:19:03.257Z,16.46
2022-11-02T20:21:35.652Z,16.46
2022-11-02T20:24:08.297Z,16.46
2022-11-02T20:26:37.812Z,16.45
2022-11-02T20:29:12.222Z,16.39
2022-11-02T20:31:44.264Z,16.42
2022-11-02T20:34:12.984Z,16.41
2022-11-02T20:36:42.256Z,16.39
2022-11-02T20:39:11.467Z,16.34
2022-11-02T20:41:43.015Z,16.21
2022-11-02T20:44:16.555Z,16.08
2022-11-02T20:47:12.283Z,15.98
2022-11-02T20:49:50.513Z,15.90
2022-11-02T20:52:22.704Z,15.78
2022-11-02T21:03:50.847Z,15.63
2022-11-02T21:06:22.226Z,15.55
2022-11-02T21:08:53.123Z,15.45
2022-11-02T21:11:46.806Z,15.42
2022-11-02T21:14:45.196Z,15.37
2022-11-02T21:17:14.291Z,15.31
2022-11-02T21:20:14.220Z,15.27
2022-11-02T21:22:49.744Z,15.25
2022-11-02T21:25:20.470Z,15.24
2022-11-02T21:27:50.277Z,15.22
2022-11-02T21:30:20.950Z,15.21
2022-11-02T21:32:53.251Z,15.17
2022-11-02T21:35:24.156Z,15.15
2022-11-02T21:37:56.083Z,15.13
2022-11-02T21:40:26.882Z,15.08
2022-11-02T21:42:57.003Z,15.01
2022-11-02T21:45:26.504Z,14.96
2022-11-02T21:47:55.155Z,14.94
2022-11-02T21:50:26.528Z,14.97
2022-11-02T21:53:28.682Z,14.95
2022-11-02T21:56:18.758Z,14.96
2022-11-02T21:58:58.827Z,14.81
2022-11-02T22:01:49.936Z,14.74
2022-11-02T22:04:29.020Z,14.69
2022-11-02T22:07:00.509Z,14.68
2022-11-02T22:09:31.180Z,14.62
2022-11-02T22:12:18.309Z,14.56
2022-11-02T22:14:48.340Z,14.47
2022-11-02T22:20:13.691Z,14.32
2022-11-02T22:22:43.564Z,14.29
2022-11-02T22:25:12.292Z,14.26
2022-11-02T22:27:40.948Z,14.22
2022-11-02T22:30:16.597Z,14.12
2022-11-02T22:32:52.241Z,14.07
2022-11-02T22:42:48.346Z,13.25
2022-11-02T22:50:00.247Z,13.25
2022-11-02T22:52:29.702Z,13.12
2022-11-02T22:54:59.628Z,13.06
2022-11-02T22:57:29.050Z,13.02
2022-11-02T23:00:01.295Z,13.00
2022-11-02T23:06:27.578Z,12.92
2022-11-02T23:08:59.513Z,12.91
2022-11-02T23:11:33.474Z,12.91
2022-11-02T23:14:05.818Z,12.89
2022-11-02T23:24:29.110Z,12.61
2022-11-02T23:27:02.623Z,12.58
2022-11-02T23:33:18.453Z,12.59
2022-11-02T23:37:15.477Z,12.59
2022-11-02T23:43:37.429Z,12.48
2022-11-02T23:46:07.355Z,12.44
2022-11-02T23:49:26.737Z,12.32
2022-11-02T23:52:15.820Z,12.25
2022-11-02T23:55:38.199Z,12.26
